• Join FlightAware (Why Join?)
  • Login
  • US Flag 
Trick or treat! (Boo!!) 
07:32AM EDT


 

Airport Tracker/Info


-or-


 

Live Flight TrackerFlight Track Log ✈ SKW5506 ✈ 06-May-2013 ✈ KORD - KDAY

Flight Track Log - Related Links

Times and Time Zones

All times are in EDT time to prevent confusion due to time zone crossing. See the SKW5506 flight status page for this flight to view local times or setup timezone preferences in your user account.

Time Position Orientation Groundspeed Altitude Reporting Facility
EDT Latitude Longitude Course Direction KTS MPH feet Rate Location/Type
10:40PM 41.9833 -87.8333 90° East 173 199 2,500  Level Chicago TRACON
10:42PM 41.9608 -87.5004 95° East  Level FlightAware Approximate
10:42PM 41.9872 -87.7025 88° East 236 272 6,100  Level Chicago Center
10:42PM 41.9833 -87.6500 96° East 270 311 7,500 3,000 Climbing Chicago TRACON
10:43PM 41.9513 -87.3677 95° East  Level FlightAware Approximate
10:44PM 41.9412 -87.2351 96° East  Level FlightAware Approximate
10:44PM 41.9714 -87.4772 95° East 279 321 12,300  Level Chicago Center
10:45PM 41.9333 -87.1024 90° East  Level FlightAware Approximate
10:45PM 41.9656 -87.3644 94° East 298 343 14,000  Level Chicago Center
10:46PM 41.9333 -86.9691 90° East  Level FlightAware Approximate
10:46PM 41.9528 -87.2347 98° East 334 384 15,500  Level Chicago Center
10:47PM 41.9372 -87.0947 98° East 368 423 16,300 780 Climbing Chicago Center
10:48PM 41.9206 -86.9511 99° East 385 443 17,100 720 Climbing Chicago Center
10:49PM 41.8961 -86.8069 103° East 403 464 17,800 1,080 Climbing Chicago Center
10:50PM 41.8281 -86.6803 126° Southeast 421 484 19,400 1,620 Climbing Chicago Center
10:51PM 41.7578 -86.5564 127° Southeast 420 483 21,200 1,680 Climbing Chicago Center
10:52PM 41.6883 -86.4306 126° Southeast 422 486 22,900 840 Climbing Chicago Center
10:53PM 41.6161 -86.3028 127° Southeast 428 493 23,000  Climbing Chicago Center
10:54PM 41.5150 -86.1575 133° Southeast 451 519 23,000  Level Chicago Center
10:55PM 41.4233 -86.0481 138° Southeast 449 517 23,000  Level Chicago Center
10:56PM 41.3336 -85.9394 138° Southeast 443 510 23,000 -360 Level Chicago Center
10:58PM 41.1614 -85.7311 138° Southeast 438 504 22,100 -660 Descending Indianapolis Center
10:59PM 41.0717 -85.6236 138° Southeast 436 502 21,100 -1,020 Descending Indianapolis Center
11:00PM 40.9833 -85.5189 138° Southeast 429 494 20,100 -960 Descending Indianapolis Center
11:01PM 40.8900 -85.4117 139° Southeast 426 490 19,100 -960 Descending Chicago Center
11:02PM 40.8036 -85.3069 137° Southeast 425 489 18,100 -1,080 Descending Chicago Center
11:03PM 40.7000 -85.1836 138° Southeast 423 487 17,000 -1,080 Descending Chicago Center
11:04PM 40.6217 -85.0931 139° Southeast 403 464 16,000 -960 Descending Chicago Center
11:05PM 40.5533 -85.0150 139° Southeast 402 463 15,200 -1,200 Descending Indianapolis Center
11:06PM 40.4914 -84.9419 138° Southeast 394 453 14,200 -1,620 Descending Indianapolis Center
11:06PM 40.4564 -84.9031 140° Southeast 391 450 13,600 -1,200 Descending Indianapolis Center
11:07PM 40.4167 -84.8569 139° Southeast 382 440 13,100 -1,020 Descending Indianapolis Center
11:07PM 40.3783 -84.8119 138° Southeast 380 437 12,600 -1,020 Descending Indianapolis Center
11:08PM 40.3344 -84.7631 140° Southeast 369 425 12,000 -1,200 Descending Indianapolis Center
11:08PM 40.3006 -84.7231 138° Southeast 371 427 11,400 -1,200 Descending Indianapolis Center
11:09PM 40.2542 -84.6694 139° Southeast 352 405 10,800 -1,020 Descending Indianapolis Center
11:09PM 40.2306 -84.6431 140° Southeast 346 398 10,400 -1,140 Descending Indianapolis Center
11:10PM 40.1997 -84.6156 146° Southeast 286 329 9,800 -1,500 Descending Indianapolis Center
11:10PM 40.1639 -84.5881 150° Southeast 288 331 8,900 -1,680 Descending Indianapolis Center
11:11PM 40.1367 -84.5683 151° Southeast 273 314 8,300 -1,800 Descending Indianapolis Center
11:11PM 40.0950 -84.5369 150° Southeast 282 325 7,100 -1,860 Descending Indianapolis Center
11:11PM 40.0753 -84.5217 149° Southeast 275 316 6,600 -1,800 Descending Indianapolis Center
11:12PM 40.0319 -84.4822 145° Southeast 276 318 5,300 -1,920 Descending Indianapolis Center
11:13PM 40.0097 -84.4528 135° Southeast 265 305 4,500 -1,800 Descending Indianapolis Center
11:13PM 39.9772 -84.4178 140° Southeast 270 311 3,500 -1,260 Descending Indianapolis Center
11:14PM 39.9539 -84.3906 138° Southeast 236 272 3,100 -540 Descending Indianapolis Center
11:14PM 39.9314 -84.3628 137° Southeast 246 283 3,000 -120 Descending Indianapolis Center
11:15PM 39.9172 -84.3503 146° Southeast 172 198 3,000  Level Indianapolis Center